createdAt,value
2022-10-18T00:00:23.588Z,95.14
2022-10-18T00:00:55.230Z,95.30
2022-10-18T00:01:26.781Z,94.76
2022-10-18T00:01:58.491Z,94.69
2022-10-18T00:02:30.139Z,94.52
2022-10-18T00:03:01.533Z,94.83
2022-10-18T00:03:33.901Z,94.77
2022-10-18T00:04:07.606Z,95.06
2022-10-18T00:04:39.190Z,94.57
2022-10-18T00:05:10.843Z,94.59
2022-10-18T00:05:42.273Z,94.48
2022-10-18T00:06:13.822Z,94.23
2022-10-18T00:06:45.320Z,94.45
2022-10-18T00:07:16.638Z,94.74
2022-10-18T00:07:47.982Z,94.73
2022-10-18T00:08:20.286Z,95.19
2022-10-18T00:08:51.822Z,94.54
2022-10-18T00:09:23.451Z,94.92
2022-10-18T00:09:54.785Z,95.13
2022-10-18T00:10:26.276Z,95.05
2022-10-18T00:10:57.930Z,95.22
2022-10-18T00:11:29.378Z,95.32
2022-10-18T00:12:00.973Z,95.43
2022-10-18T00:12:34.980Z,95.44
2022-10-18T00:13:06.581Z,95.82
2022-10-18T00:13:38.762Z,95.68
2022-10-18T00:14:10.385Z,95.77
2022-10-18T00:14:41.950Z,95.78
2022-10-18T00:15:13.309Z,95.88
2022-10-18T00:16:06.112Z,95.92
2022-10-18T00:16:37.559Z,95.79
2022-10-18T00:17:08.936Z,95.79
2022-10-18T00:17:40.325Z,95.65
2022-10-18T00:18:11.676Z,95.75
2022-10-18T00:18:44.006Z,95.65
2022-10-18T00:19:15.659Z,95.57
2022-10-18T00:19:48.142Z,95.83
2022-10-18T00:20:19.591Z,95.74
2022-10-18T00:21:05.028Z,95.99
2022-10-18T00:21:36.551Z,95.15
2022-10-18T00:22:08.144Z,95.63
2022-10-18T00:22:41.069Z,96.18
2022-10-18T00:23:12.688Z,95.41
2022-10-18T00:23:45.329Z,95.08
2022-10-18T00:24:16.937Z,95.30
2022-10-18T00:24:48.368Z,95.48
2022-10-18T00:25:19.849Z,94.80
2022-10-18T00:26:02.721Z,94.84
2022-10-18T00:26:34.334Z,94.92
2022-10-18T00:27:05.675Z,95.33
2022-10-18T00:27:37.493Z,95.44
2022-10-18T00:28:08.888Z,95.11
2022-10-18T00:28:41.189Z,95.68
2022-10-18T00:29:14.806Z,95.54
2022-10-18T00:29:46.506Z,95.37
2022-10-18T00:30:18.251Z,95.69
2022-10-18T00:31:30.269Z,95.73
2022-10-18T00:32:01.642Z,95.76
2022-10-18T00:32:38.225Z,95.99
2022-10-18T00:33:09.614Z,96.28
2022-10-18T00:33:41.892Z,96.25
2022-10-18T00:34:15.814Z,96.27
2022-10-18T00:34:47.410Z,95.50
2022-10-18T00:35:19.071Z,95.97
2022-10-18T00:35:50.520Z,95.77
2022-10-18T00:36:22.815Z,95.82
2022-10-18T00:36:55.014Z,95.58
2022-10-18T00:37:26.419Z,96.05
2022-10-18T00:37:57.806Z,95.88
2022-10-18T00:38:29.518Z,95.78
2022-10-18T00:39:02.973Z,95.16
2022-10-18T00:39:34.561Z,95.72
2022-10-18T00:40:06.613Z,95.30
2022-10-18T00:40:38.114Z,95.74
2022-10-18T00:41:13.316Z,96.10
2022-10-18T00:41:45.357Z,96.04
2022-10-18T00:42:18.475Z,95.57
2022-10-18T00:42:49.857Z,95.91
2022-10-18T00:43:21.283Z,95.95
2022-10-18T00:43:59.984Z,96.09
2022-10-18T00:44:31.871Z,96.12
2022-10-18T00:45:16.668Z,95.83
2022-10-18T00:45:48.115Z,95.88
2022-10-18T00:46:19.808Z,95.80
2022-10-18T00:46:52.916Z,95.77
2022-10-18T00:47:24.621Z,95.47
2022-10-18T00:47:59.987Z,95.47
2022-10-18T00:48:31.332Z,95.49
2022-10-18T00:49:07.847Z,95.68
2022-10-18T00:49:53.652Z,95.51
2022-10-18T00:50:28.726Z,95.26
2022-10-18T00:51:00.186Z,95.44
2022-10-18T00:51:38.475Z,95.71
2022-10-18T00:52:12.558Z,95.70
2022-10-18T00:52:49.125Z,95.39
2022-10-18T00:53:22.738Z,95.58
2022-10-18T00:53:54.825Z,95.80
2022-10-18T00:54:28.295Z,95.47
2022-10-18T00:55:00.404Z,95.84
2022-10-18T00:55:33.595Z,95.90
2022-10-18T00:56:05.334Z,95.72
2022-10-18T00:56:37.035Z,95.39
2022-10-18T00:57:09.346Z,95.93
2022-10-18T00:57:43.147Z,95.55
2022-10-18T00:58:17.200Z,95.58
2022-10-18T00:58:49.766Z,95.44
2022-10-18T00:59:21.801Z,95.80
2022-10-18T00:59:54.091Z,95.54
2022-10-18T01:00:25.826Z,96.42
2022-10-18T01:00:57.142Z,95.69
2022-10-18T01:01:28.945Z,95.80
2022-10-18T01:02:01.320Z,96.00
2022-10-18T01:02:33.396Z,96.21
2022-10-18T01:03:05.690Z,95.91
2022-10-18T01:03:37.934Z,96.02
2022-10-18T01:04:09.319Z,95.09
2022-10-18T01:04:40.982Z,95.67
2022-10-18T01:05:15.348Z,95.32
2022-10-18T01:05:48.130Z,95.58
2022-10-18T01:06:19.710Z,95.32
2022-10-18T01:07:30.208Z,95.43
2022-10-18T01:08:16.659Z,95.74
2022-10-18T01:09:04.643Z,95.56
2022-10-18T01:09:52.025Z,95.28
2022-10-18T01:10:44.608Z,96.12
2022-10-18T01:11:51.008Z,96.06
2022-10-18T01:12:33.190Z,96.12
2022-10-18T01:13:41.620Z,95.85
2022-10-18T01:14:45.167Z,96.12
2022-10-18T01:15:31.124Z,95.94
2022-10-18T01:16:58.364Z,96.59
2022-10-18T01:18:02.173Z,96.25
2022-10-18T01:18:45.163Z,96.06
2022-10-18T01:19:43.516Z,95.86
2022-10-18T01:20:17.918Z,96.01
2022-10-18T01:20:59.072Z,95.54
2022-10-18T01:21:45.453Z,95.23
2022-10-18T01:22:24.920Z,95.96
2022-10-18T01:23:14.133Z,95.61
2022-10-18T01:24:03.708Z,95.32
2022-10-18T01:24:53.716Z,95.47
2022-10-18T01:26:00.145Z,95.64
2022-10-18T01:27:03.750Z,96.25
2022-10-18T01:27:44.615Z,96.64
2022-10-18T01:28:51.880Z,96.43
2022-10-18T01:29:58.380Z,96.91
2022-10-18T01:30:48.232Z,96.61
2022-10-18T01:31:40.139Z,96.16
2022-10-18T01:32:22.113Z,96.10
2022-10-18T01:32:58.049Z,96.61
2022-10-18T01:33:51.192Z,96.27
2022-10-18T01:34:25.959Z,96.23
2022-10-18T01:35:01.653Z,96.75
2022-10-18T01:35:40.769Z,96.38
2022-10-18T01:36:23.245Z,96.82
2022-10-18T01:36:56.843Z,96.21
2022-10-18T01:37:30.786Z,96.79
2022-10-18T01:38:05.966Z,96.58
2022-10-18T01:38:39.776Z,96.67
2022-10-18T01:39:16.952Z,96.69
2022-10-18T01:39:52.211Z,96.02
2022-10-18T01:40:24.874Z,96.58
2022-10-18T01:40:57.965Z,96.86
2022-10-18T01:41:29.981Z,96.50
2022-10-18T01:42:06.103Z,96.59
2022-10-18T01:42:37.540Z,96.25
2022-10-18T01:43:10.566Z,96.75
2022-10-18T01:43:46.462Z,96.22
2022-10-18T01:44:23.054Z,96.63
2022-10-18T01:44:54.972Z,96.74
2022-10-18T01:45:28.361Z,96.33
2022-10-18T01:46:01.331Z,96.70
2022-10-18T01:46:33.319Z,96.70
2022-10-18T01:47:07.743Z,96.84
2022-10-18T01:47:40.572Z,97.03
2022-10-18T01:48:13.879Z,97.16
2022-10-18T01:48:46.301Z,96.91
2022-10-18T01:49:17.723Z,97.18
2022-10-18T01:49:49.061Z,97.26
2022-10-18T01:50:32.768Z,97.21
2022-10-18T01:51:05.099Z,97.18
2022-10-18T01:51:36.605Z,96.67
2022-10-18T01:52:13.244Z,96.45
2022-10-18T01:52:50.159Z,96.63
2022-10-18T01:53:33.476Z,97.35
2022-10-18T01:54:05.307Z,96.88
2022-10-18T01:54:39.244Z,96.78
2022-10-18T01:55:10.928Z,97.02
2022-10-18T01:55:46.131Z,96.60
2022-10-18T01:56:23.340Z,97.18
2022-10-18T01:56:54.597Z,97.11
2022-10-18T01:57:34.681Z,96.85
2022-10-18T01:58:18.833Z,96.43
2022-10-18T01:59:12.101Z,96.88
2022-10-18T02:00:01.612Z,96.63
2022-10-18T02:00:41.998Z,97.03
2022-10-18T02:01:28.215Z,96.61
2022-10-18T02:02:14.508Z,96.97
2022-10-18T02:02:51.904Z,96.15
2022-10-18T02:03:27.699Z,95.99
2022-10-18T02:04:11.576Z,96.10
2022-10-18T02:05:19.779Z,96.56
2022-10-18T02:06:03.335Z,96.50
2022-10-18T02:06:45.055Z,96.19
2022-10-18T02:08:12.390Z,95.85
2022-10-18T02:08:59.322Z,95.81
2022-10-18T02:09:40.185Z,96.46
2022-10-18T02:10:33.998Z,96.90
2022-10-18T02:11:09.286Z,96.25
2022-10-18T02:11:46.406Z,96.01
2022-10-18T02:12:19.981Z,96.13
2022-10-18T02:12:53.733Z,96.40
2022-10-18T02:13:30.084Z,96.27
2022-10-18T02:14:08.332Z,96.19
2022-10-18T02:14:41.887Z,96.44
2022-10-18T02:15:23.998Z,96.47
2022-10-18T02:16:00.360Z,96.43
2022-10-18T02:16:44.229Z,96.06
2022-10-18T02:17:17.441Z,96.03
2022-10-18T02:17:48.763Z,96.38
2022-10-18T02:18:34.165Z,96.29
2022-10-18T02:19:12.674Z,96.46
2022-10-18T02:19:49.382Z,96.14
2022-10-18T02:20:24.153Z,96.36
2022-10-18T02:20:56.342Z,96.51
2022-10-18T02:21:29.106Z,95.98
2022-10-18T02:22:01.093Z,95.81
2022-10-18T02:22:33.865Z,96.18
2022-10-18T02:23:08.377Z,96.36
2022-10-18T02:23:39.830Z,96.43
2022-10-18T02:24:14.167Z,96.37
2022-10-18T02:24:51.079Z,95.84
2022-10-18T02:25:27.484Z,95.88
2022-10-18T02:25:58.878Z,96.09
2022-10-18T02:26:30.628Z,96.03
2022-10-18T02:27:02.391Z,95.94
2022-10-18T02:27:33.730Z,96.34
2022-10-18T02:28:06.117Z,96.33
2022-10-18T02:28:38.423Z,95.77
2022-10-18T02:29:10.328Z,95.78
2022-10-18T02:29:42.836Z,95.92
2022-10-18T02:30:15.894Z,96.09
2022-10-18T02:31:11.320Z,96.54
2022-10-18T02:31:49.423Z,96.07
2022-10-18T02:32:44.643Z,96.01
2022-10-18T02:33:32.166Z,96.53
2022-10-18T02:34:16.878Z,96.12
2022-10-18T02:34:58.501Z,96.05
2022-10-18T02:35:35.790Z,95.71
2022-10-18T02:36:15.167Z,96.15
2022-10-18T02:36:51.931Z,95.76
2022-10-18T02:37:59.033Z,95.69
2022-10-18T02:38:32.169Z,95.48
2022-10-18T02:39:09.767Z,95.81
2022-10-18T02:39:46.936Z,95.64
2022-10-18T02:40:18.911Z,95.58
2022-10-18T02:40:50.595Z,95.40
2022-10-18T02:41:27.297Z,95.34
2022-10-18T02:41:59.887Z,95.40
2022-10-18T02:42:47.726Z,95.55
2022-10-18T02:43:19.079Z,95.51
2022-10-18T02:43:50.530Z,95.11
2022-10-18T02:44:22.074Z,95.59
2022-10-18T02:44:53.480Z,95.51
2022-10-18T02:45:26.362Z,95.76
2022-10-18T02:45:57.780Z,95.49
2022-10-18T02:46:29.165Z,95.31
2022-10-18T02:47:01.191Z,95.39
2022-10-18T02:47:32.891Z,95.31
2022-10-18T02:48:04.639Z,95.41
2022-10-18T02:48:36.169Z,95.17
2022-10-18T02:49:07.715Z,95.06
2022-10-18T02:49:39.114Z,95.05
2022-10-18T02:50:10.898Z,95.06
2022-10-18T02:50:42.228Z,95.14
2022-10-18T02:51:13.794Z,94.77
2022-10-18T02:51:45.122Z,94.91
2022-10-18T02:52:16.513Z,95.54
2022-10-18T02:52:48.121Z,94.95
2022-10-18T02:53:19.686Z,94.80
2022-10-18T02:53:51.271Z,95.24
2022-10-18T02:54:23.372Z,94.91
2022-10-18T02:54:55.295Z,95.24
2022-10-18T02:55:26.643Z,94.93
2022-10-18T02:55:58.014Z,94.99
2022-10-18T02:56:29.582Z,94.96
2022-10-18T02:57:00.924Z,94.98
2022-10-18T02:57:32.867Z,94.76
2022-10-18T02:58:04.599Z,94.70
2022-10-18T02:58:36.009Z,94.81
2022-10-18T02:59:08.124Z,94.90
2022-10-18T02:59:39.670Z,94.81
2022-10-18T03:00:11.636Z,94.78
2022-10-18T03:00:42.931Z,94.72
2022-10-18T03:01:14.362Z,94.60
2022-10-18T03:01:46.056Z,95.05
2022-10-18T03:02:17.609Z,94.70
2022-10-18T03:02:49.320Z,94.61
2022-10-18T03:03:20.857Z,94.87
2022-10-18T03:03:52.372Z,94.77
2022-10-18T03:04:23.701Z,94.90
2022-10-18T03:04:55.085Z,95.04
2022-10-18T03:05:26.413Z,94.45
2022-10-18T03:05:57.835Z,95.08
2022-10-18T03:06:29.371Z,94.81
2022-10-18T03:07:00.704Z,94.94
2022-10-18T03:07:32.385Z,95.10
2022-10-18T03:08:04.481Z,95.04
2022-10-18T03:08:36.471Z,95.29
2022-10-18T03:09:07.986Z,94.97
2022-10-18T03:09:39.581Z,94.64
2022-10-18T03:10:10.918Z,95.19
2022-10-18T03:10:46.823Z,95.27
2022-10-18T03:11:18.189Z,94.87
2022-10-18T03:11:49.474Z,94.65
2022-10-18T03:12:20.996Z,94.65
2022-10-18T03:12:52.521Z,94.62
2022-10-18T03:13:23.865Z,94.51
2022-10-18T03:13:55.401Z,94.64
2022-10-18T03:14:26.973Z,94.32
2022-10-18T03:14:58.658Z,94.82
2022-10-18T03:15:29.987Z,94.84
2022-10-18T03:16:01.767Z,94.40
2022-10-18T03:16:34.153Z,94.51
2022-10-18T03:17:05.485Z,94.10
2022-10-18T03:17:36.831Z,94.63
2022-10-18T03:18:08.371Z,94.18
2022-10-18T03:18:39.735Z,94.51
2022-10-18T03:19:11.149Z,94.29
2022-10-18T03:19:42.593Z,94.36
2022-10-18T03:20:14.263Z,94.46
2022-10-18T03:20:45.640Z,94.17
2022-10-18T03:21:17.174Z,93.94
2022-10-18T03:21:48.826Z,94.07
2022-10-18T03:22:20.246Z,94.02
2022-10-18T03:22:51.599Z,94.03
2022-10-18T03:23:23.183Z,93.93
2022-10-18T03:23:54.562Z,94.63
2022-10-18T03:24:26.102Z,94.19
2022-10-18T03:24:57.435Z,94.18
2022-10-18T03:25:29.066Z,94.19
2022-10-18T03:26:00.643Z,94.18
2022-10-18T03:26:32.170Z,94.42
2022-10-18T03:27:03.725Z,94.55
2022-10-18T03:27:35.200Z,94.56
2022-10-18T03:28:06.844Z,94.32
2022-10-18T03:28:38.437Z,94.34
2022-10-18T03:29:10.609Z,94.33
2022-10-18T03:29:41.961Z,94.47
2022-10-18T03:30:13.669Z,94.53
2022-10-18T03:30:45.261Z,94.42
2022-10-18T03:31:16.991Z,94.45
2022-10-18T03:31:48.485Z,94.09
2022-10-18T03:32:19.815Z,94.41
2022-10-18T03:32:51.394Z,94.18
2022-10-18T03:33:22.735Z,94.35
2022-10-18T03:33:54.092Z,94.40
2022-10-18T03:34:25.635Z,94.62
2022-10-18T03:34:57.145Z,94.22
2022-10-18T03:35:28.503Z,93.98
2022-10-18T03:35:59.890Z,93.85
2022-10-18T03:36:31.298Z,94.09
2022-10-18T03:37:04.793Z,94.10
2022-10-18T03:37:37.232Z,94.11
2022-10-18T03:38:08.911Z,93.75
2022-10-18T03:38:40.259Z,93.90
2022-10-18T03:39:12.679Z,93.66
2022-10-18T03:39:43.982Z,94.23
2022-10-18T03:40:15.411Z,94.07
2022-10-18T03:40:46.755Z,94.05
2022-10-18T03:41:18.336Z,93.90
2022-10-18T03:41:49.735Z,94.31
2022-10-18T03:42:21.288Z,93.54
2022-10-18T03:42:52.804Z,94.15
2022-10-18T03:43:24.380Z,94.21
2022-10-18T03:43:55.709Z,93.97
2022-10-18T03:44:27.224Z,94.31
2022-10-18T03:44:58.568Z,94.47
2022-10-18T03:45:31.416Z,94.14
2022-10-18T03:46:03.688Z,94.35
2022-10-18T03:46:35.251Z,93.63
2022-10-18T03:47:06.757Z,94.06
2022-10-18T03:47:38.178Z,93.76
2022-10-18T03:48:09.508Z,94.02
2022-10-18T03:48:41.191Z,94.04
2022-10-18T03:49:12.657Z,94.05
2022-10-18T03:49:44.070Z,93.88
2022-10-18T03:50:15.694Z,93.52
2022-10-18T03:50:47.213Z,94.01
2022-10-18T03:51:18.749Z,93.89
2022-10-18T03:51:50.272Z,93.61
2022-10-18T03:52:21.825Z,93.69
2022-10-18T03:52:54.440Z,93.95
2022-10-18T03:53:25.905Z,94.02
2022-10-18T03:53:57.326Z,93.94
2022-10-18T03:54:28.874Z,93.29
2022-10-18T03:55:00.196Z,93.94
2022-10-18T03:55:31.735Z,93.51
2022-10-18T03:56:03.495Z,93.28
2022-10-18T03:56:34.849Z,93.76
2022-10-18T03:57:06.378Z,93.81
2022-10-18T03:57:37.698Z,93.70
2022-10-18T03:58:09.254Z,93.58
2022-10-18T03:58:40.613Z,93.94
2022-10-18T03:59:12.126Z,93.16
2022-10-18T03:59:43.466Z,93.39
2022-10-18T04:00:15.128Z,93.17
2022-10-18T04:00:52.666Z,93.77
2022-10-18T04:01:24.283Z,93.92
2022-10-18T04:01:55.691Z,93.65
2022-10-18T04:02:27.606Z,93.52
2022-10-18T04:02:59.131Z,93.05
2022-10-18T04:03:30.466Z,93.37
2022-10-18T04:04:01.926Z,93.41
2022-10-18T04:04:33.344Z,93.95
2022-10-18T04:05:05.315Z,93.63
2022-10-18T04:05:36.907Z,93.72
2022-10-18T04:06:10.078Z,93.58
2022-10-18T04:06:41.723Z,93.40
2022-10-18T04:07:13.267Z,93.42
2022-10-18T04:07:44.712Z,93.62
2022-10-18T04:08:16.929Z,93.08
2022-10-18T04:08:48.283Z,93.54
2022-10-18T04:09:19.652Z,93.59
2022-10-18T04:09:50.974Z,93.57
2022-10-18T04:10:23.010Z,93.30
2022-10-18T04:10:54.577Z,93.39
2022-10-18T04:11:25.951Z,93.33
2022-10-18T04:11:57.345Z,93.45
2022-10-18T04:12:28.927Z,93.08
2022-10-18T04:13:00.583Z,92.93
2022-10-18T04:13:32.113Z,93.37
2022-10-18T04:14:03.661Z,93.01
2022-10-18T04:14:35.469Z,93.15
2022-10-18T04:15:07.713Z,93.30
2022-10-18T04:15:39.291Z,93.11
2022-10-18T04:16:10.621Z,92.94
2022-10-18T04:16:42.090Z,92.96
2022-10-18T04:17:13.404Z,92.84
2022-10-18T04:17:44.955Z,92.86
2022-10-18T04:18:21.498Z,92.39
2022-10-18T04:18:53.122Z,92.86
2022-10-18T04:19:24.557Z,92.82
2022-10-18T04:19:55.878Z,92.59
2022-10-18T04:20:28.119Z,92.46
2022-10-18T04:20:59.527Z,92.41
2022-10-18T04:21:30.862Z,92.30
2022-10-18T04:22:02.198Z,92.39
2022-10-18T04:22:33.745Z,92.72
2022-10-18T04:23:05.094Z,92.56
2022-10-18T04:23:38.751Z,92.91
2022-10-18T04:24:10.393Z,92.53
2022-10-18T04:24:41.736Z,92.74
2022-10-18T04:25:13.102Z,92.97
2022-10-18T04:26:28.791Z,92.40
2022-10-18T04:35:01.444Z,93.48
2022-10-18T05:01:47.671Z,93.55
2022-10-18T05:58:37.668Z,95.48
2022-10-18T06:05:30.882Z,94.96
2022-10-18T06:13:10.971Z,96.26
2022-10-18T06:18:15.898Z,96.40
2022-10-18T06:35:04.841Z,97.24
2022-10-18T06:35:36.227Z,97.07
2022-10-18T06:36:11.494Z,97.01
2022-10-18T06:36:53.808Z,97.02
2022-10-18T06:37:30.593Z,97.35
2022-10-18T06:38:02.151Z,97.31
2022-10-18T06:38:33.690Z,97.13
2022-10-18T06:39:05.073Z,97.34
2022-10-18T06:39:36.465Z,97.32
2022-10-18T06:40:08.500Z,97.66
2022-10-18T06:40:39.869Z,97.37
2022-10-18T06:41:11.289Z,97.18
2022-10-18T06:41:42.845Z,97.44
2022-10-18T06:42:14.806Z,97.64
2022-10-18T06:42:59.934Z,97.42
2022-10-18T06:43:32.144Z,97.66
2022-10-18T06:44:13.256Z,97.28
2022-10-18T06:44:44.669Z,97.33
2022-10-18T06:45:18.140Z,97.40
2022-10-18T06:45:50.264Z,97.54
2022-10-18T06:46:21.645Z,97.57
2022-10-18T06:46:53.470Z,97.40
2022-10-18T06:47:24.865Z,97.59
2022-10-18T06:47:58.641Z,97.63
2022-10-18T06:48:31.282Z,97.44
2022-10-18T06:49:02.660Z,97.47
2022-10-18T06:49:34.082Z,97.35
2022-10-18T06:50:05.790Z,97.35
2022-10-18T06:50:37.395Z,97.61
2022-10-18T06:51:09.820Z,97.59
2022-10-18T06:51:42.832Z,97.81
2022-10-18T06:52:17.235Z,97.25
2022-10-18T06:52:51.228Z,97.30
2022-10-18T06:53:26.714Z,97.33
2022-10-18T06:54:13.330Z,97.08
2022-10-18T06:54:49.110Z,97.06
2022-10-18T06:55:20.609Z,97.38
2022-10-18T06:55:52.383Z,97.42
2022-10-18T06:56:23.733Z,97.25
2022-10-18T06:56:58.113Z,97.42
2022-10-18T06:57:34.405Z,97.73
2022-10-18T06:58:08.855Z,97.18
2022-10-18T06:58:40.797Z,97.11
2022-10-18T06:59:12.343Z,97.13
2022-10-18T06:59:43.697Z,97.43
2022-10-18T07:00:15.590Z,97.41
2022-10-18T07:00:47.708Z,97.07
2022-10-18T07:01:19.868Z,97.07
2022-10-18T07:01:51.559Z,97.04
2022-10-18T07:02:23.143Z,96.97
2022-10-18T07:02:54.520Z,97.15
2022-10-18T07:03:27.231Z,97.34
2022-10-18T07:03:58.766Z,97.46
2022-10-18T07:04:32.944Z,97.49
2022-10-18T07:05:04.697Z,97.51
2022-10-18T07:05:36.086Z,97.40
2022-10-18T07:06:10.048Z,97.28
2022-10-18T07:06:41.446Z,97.76
2022-10-18T07:07:12.948Z,97.38
2022-10-18T07:07:44.351Z,97.57
2022-10-18T07:08:16.174Z,97.42
2022-10-18T07:08:49.590Z,97.54
2022-10-18T07:09:20.927Z,97.45
2022-10-18T07:09:52.347Z,97.89
2022-10-18T07:10:25.826Z,97.72
2022-10-18T07:10:57.297Z,97.80
2022-10-18T07:11:33.989Z,97.49
2022-10-18T07:12:05.709Z,97.85
2022-10-18T07:12:37.119Z,97.61
2022-10-18T07:13:31.034Z,97.58
2022-10-18T07:14:03.281Z,97.46
2022-10-18T07:14:34.681Z,97.29
2022-10-18T07:15:09.325Z,97.27
2022-10-18T07:15:41.171Z,97.06
2022-10-18T07:16:18.159Z,96.90
2022-10-18T07:16:50.296Z,97.15
2022-10-18T07:17:21.678Z,96.98
2022-10-18T07:17:53.056Z,97.04
2022-10-18T07:18:24.476Z,97.01
2022-10-18T07:18:55.841Z,97.33
2022-10-18T07:19:27.680Z,97.43
2022-10-18T07:19:59.053Z,97.17
2022-10-18T07:20:30.411Z,97.67
2022-10-18T07:21:16.477Z,97.42
2022-10-18T07:21:48.071Z,97.19
2022-10-18T07:22:19.402Z,97.33
2022-10-18T07:22:50.949Z,97.25
2022-10-18T07:23:23.801Z,97.01
2022-10-18T07:23:56.356Z,96.92
2022-10-18T07:24:27.758Z,96.93
2022-10-18T07:24:59.087Z,96.68
2022-10-18T07:25:31.210Z,96.80
2022-10-18T07:26:05.277Z,96.58
2022-10-18T07:26:36.821Z,96.40
2022-10-18T07:27:08.352Z,96.58
2022-10-18T07:27:42.388Z,96.72
2022-10-18T07:28:13.894Z,96.28
2022-10-18T07:28:47.438Z,96.67
2022-10-18T07:29:18.800Z,96.63
2022-10-18T07:29:50.158Z,96.47
2022-10-18T07:30:21.494Z,96.46
2022-10-18T07:30:52.870Z,96.65
2022-10-18T07:31:25.109Z,96.65
2022-10-18T07:31:56.714Z,96.64
2022-10-18T07:32:28.135Z,96.97
2022-10-18T07:32:59.486Z,96.58
2022-10-18T07:33:30.891Z,97.41
2022-10-18T07:34:04.901Z,97.29
2022-10-18T07:34:36.243Z,96.93
2022-10-18T07:35:08.091Z,97.28
2022-10-18T07:35:39.418Z,96.96
2022-10-18T07:36:12.496Z,96.93
2022-10-18T07:36:43.890Z,97.00
2022-10-18T07:37:15.254Z,96.94
2022-10-18T07:37:46.637Z,96.64
2022-10-18T07:38:18.193Z,96.59
2022-10-18T07:38:50.063Z,96.36
2022-10-18T07:39:21.504Z,96.60
2022-10-18T07:40:13.069Z,97.15
2022-10-18T07:41:09.166Z,96.79
2022-10-18T07:41:40.828Z,96.33
2022-10-18T07:42:12.145Z,96.31
2022-10-18T07:42:43.472Z,96.54
2022-10-18T07:43:14.885Z,96.47
2022-10-18T07:43:49.186Z,96.46
2022-10-18T07:44:20.739Z,96.32
2022-10-18T07:44:52.344Z,95.71
2022-10-18T07:45:23.750Z,96.08
2022-10-18T07:45:57.888Z,96.57
2022-10-18T07:46:29.408Z,96.41
2022-10-18T07:47:00.817Z,96.10
2022-10-18T07:47:35.099Z,96.31
2022-10-18T07:48:06.790Z,96.30
2022-10-18T07:48:38.154Z,95.99
2022-10-18T07:49:09.517Z,95.95
2022-10-18T07:49:41.181Z,96.71
2022-10-18T07:50:12.745Z,96.03
2022-10-18T07:50:44.124Z,95.77
2022-10-18T07:51:15.653Z,96.05
2022-10-18T07:51:46.972Z,96.07
2022-10-18T07:52:18.337Z,96.23
2022-10-18T07:52:49.677Z,96.06
2022-10-18T07:53:21.061Z,96.21
2022-10-18T07:53:52.422Z,96.10
2022-10-18T07:54:23.751Z,96.54
2022-10-18T07:54:55.280Z,96.75
2022-10-18T07:55:26.694Z,96.88
2022-10-18T07:55:59.293Z,97.31
2022-10-18T07:56:30.662Z,97.42
2022-10-18T07:57:04.235Z,97.09
2022-10-18T07:57:35.788Z,97.08
2022-10-18T07:58:07.315Z,97.05
2022-10-18T07:58:38.879Z,96.96
2022-10-18T07:59:11.186Z,97.74
2022-10-18T07:59:46.203Z,97.16
2022-10-18T08:00:17.579Z,97.34
2022-10-18T08:00:49.160Z,97.22
2022-10-18T08:01:22.439Z,97.35
2022-10-18T08:01:53.928Z,97.18
2022-10-18T08:02:25.432Z,96.81
2022-10-18T08:02:58.741Z,97.04
2022-10-18T08:03:30.116Z,97.18
2022-10-18T08:04:07.038Z,96.92
2022-10-18T08:04:39.418Z,97.19
2022-10-18T08:05:10.782Z,97.28
2022-10-18T08:05:42.139Z,97.31
2022-10-18T08:06:16.326Z,97.86
2022-10-18T08:06:48.017Z,97.84
2022-10-18T08:07:19.466Z,98.05
2022-10-18T08:07:50.808Z,97.70
2022-10-18T08:08:23.334Z,98.13
2022-10-18T08:08:54.756Z,98.75
2022-10-18T08:09:26.338Z,98.19
2022-10-18T08:09:57.886Z,97.64
2022-10-18T08:10:29.440Z,97.67
2022-10-18T08:11:06.836Z,98.23
2022-10-18T08:11:38.621Z,98.27
2022-10-18T08:12:09.960Z,98.56
2022-10-18T08:12:41.733Z,98.38
2022-10-18T08:13:13.351Z,98.39
2022-10-18T08:13:44.737Z,99.14
2022-10-18T08:14:16.084Z,99.17
2022-10-18T08:14:47.471Z,98.80
2022-10-18T08:15:18.862Z,98.74
2022-10-18T08:15:50.249Z,98.99
2022-10-18T08:16:24.921Z,99.45
2022-10-18T08:16:56.571Z,98.81
2022-10-18T08:17:27.885Z,98.89
2022-10-18T08:17:59.413Z,99.22
2022-10-18T08:18:31.530Z,99.30
2022-10-18T08:19:03.087Z,99.19
2022-10-18T08:19:34.653Z,98.77
2022-10-18T08:20:12.110Z,99.09
2022-10-18T08:20:45.364Z,99.15
2022-10-18T08:21:18.534Z,99.40
2022-10-18T08:21:49.865Z,99.97
2022-10-18T08:22:22.816Z,99.94
2022-10-18T08:22:59.070Z,100.00
2022-10-18T08:23:31.400Z,100.00
2022-10-18T08:24:02.826Z,100.00
2022-10-18T08:24:34.346Z,100.00
2022-10-18T08:25:06.365Z,100.00
2022-10-18T08:25:46.402Z,100.00
2022-10-18T08:26:20.837Z,100.00
2022-10-18T08:26:52.286Z,100.00
2022-10-18T08:27:26.415Z,100.00
2022-10-18T08:27:58.082Z,100.00
2022-10-18T08:28:29.590Z,100.00
2022-10-18T08:29:21.051Z,100.00
2022-10-18T08:29:52.813Z,100.00
2022-10-18T08:30:24.602Z,100.00
2022-10-18T08:30:56.202Z,100.00
2022-10-18T08:31:27.590Z,100.00
2022-10-18T08:31:59.029Z,100.00
2022-10-18T08:32:30.672Z,100.00
2022-10-18T08:33:03.421Z,99.86
2022-10-18T08:33:36.089Z,100.00
2022-10-18T08:34:07.544Z,99.71
2022-10-18T08:35:15.564Z,99.88
2022-10-18T08:35:57.749Z,100.00
2022-10-18T08:36:29.121Z,99.95
2022-10-18T08:37:00.628Z,100.00
2022-10-18T08:37:32.792Z,100.00
2022-10-18T08:38:04.391Z,100.00
2022-10-18T08:38:37.938Z,100.00
2022-10-18T08:39:09.369Z,100.00
2022-10-18T08:39:40.729Z,100.00
2022-10-18T08:40:16.285Z,100.00
2022-10-18T08:40:48.073Z,100.00
2022-10-18T08:41:49.929Z,100.00
2022-10-18T08:42:47.392Z,100.00
2022-10-18T08:43:41.650Z,100.00
2022-10-18T08:44:23.352Z,100.00
2022-10-18T08:44:55.256Z,100.00
2022-10-18T08:45:41.870Z,100.00
2022-10-18T08:46:14.643Z,100.00
2022-10-18T08:46:49.324Z,100.00
2022-10-18T08:47:35.534Z,100.00
2022-10-18T08:48:13.746Z,100.00
2022-10-18T08:48:49.998Z,100.00
2022-10-18T08:49:46.813Z,100.00
2022-10-18T08:50:26.243Z,100.00
2022-10-18T08:50:58.548Z,100.00
2022-10-18T08:51:38.166Z,100.00
2022-10-18T08:52:53.418Z,100.00
2022-10-18T08:53:36.221Z,100.00
2022-10-18T08:54:13.395Z,100.00
2022-10-18T08:55:23.518Z,100.00
2022-10-18T08:56:00.479Z,100.00
2022-10-18T08:56:33.424Z,100.00
2022-10-18T08:57:14.761Z,100.00
2022-10-18T08:57:48.385Z,100.00
2022-10-18T08:58:24.650Z,100.00
2022-10-18T08:58:55.979Z,100.00
2022-10-18T08:59:39.685Z,100.00
2022-10-18T09:00:21.862Z,100.00
2022-10-18T09:01:17.468Z,100.00
2022-10-18T09:02:03.276Z,100.00
2022-10-18T09:02:39.618Z,100.00
2022-10-18T09:03:22.396Z,100.00
2022-10-18T09:04:14.949Z,100.00
2022-10-18T09:05:15.314Z,100.00
2022-10-18T09:05:54.909Z,100.00
2022-10-18T09:06:53.030Z,100.00
2022-10-18T09:07:46.167Z,100.00
2022-10-18T09:08:26.574Z,99.96
2022-10-18T09:09:01.091Z,99.35
2022-10-18T09:09:54.808Z,98.57
2022-10-18T09:10:33.822Z,98.61
2022-10-18T09:11:34.963Z,98.04
2022-10-18T09:12:15.524Z,97.77
2022-10-18T09:12:56.084Z,98.28
2022-10-18T09:13:45.935Z,98.41
2022-10-18T09:14:30.159Z,98.51
2022-10-18T09:15:13.080Z,98.76
2022-10-18T09:15:51.840Z,99.93
2022-10-18T09:16:30.607Z,100.00
2022-10-18T09:17:20.726Z,100.00
2022-10-18T09:18:10.910Z,100.00
2022-10-18T09:19:09.731Z,99.93
2022-10-18T09:20:11.715Z,100.00
2022-10-18T09:21:00.800Z,100.00
2022-10-18T09:21:52.769Z,100.00
2022-10-18T09:22:39.063Z,100.00
2022-10-18T09:23:20.917Z,100.00
2022-10-18T09:24:25.593Z,99.15
2022-10-18T09:25:22.352Z,98.84
2022-10-18T09:26:03.080Z,98.28
2022-10-18T09:26:44.149Z,99.18
2022-10-18T09:27:17.792Z,99.11
2022-10-18T09:28:01.291Z,99.06
2022-10-18T09:28:56.996Z,99.18
2022-10-18T09:30:10.143Z,98.65
2022-10-18T09:30:48.601Z,98.63
2022-10-18T09:31:44.100Z,99.08
2022-10-18T09:32:32.288Z,99.49
2022-10-18T09:33:28.499Z,98.69
2022-10-18T09:34:05.952Z,97.69
2022-10-18T09:34:53.344Z,98.34
2022-10-18T09:35:30.183Z,96.74
2022-10-18T09:36:04.804Z,95.89
2022-10-18T09:36:39.941Z,95.52
2022-10-18T09:37:19.122Z,95.82
2022-10-18T09:37:58.946Z,95.92
2022-10-18T09:38:45.189Z,95.92
2022-10-18T09:39:23.226Z,95.44
2022-10-18T09:40:07.349Z,95.53
2022-10-18T09:40:51.872Z,95.27
2022-10-18T09:41:38.029Z,95.28
2022-10-18T09:42:30.748Z,96.10